Historique des mesures à Cassis (13260), France
Quotidien Résumé Avril 6, 2017 Unités:  Métrique    US   Métrique/US
« Précédent (Jour)
Suivant (Jour) »
Quotidien Hebdomadaire Mensuel Annuel Période au choix
  Maximum: Minimum: Moyenne:
Température: TemperatureC °C 11.8 °C 14.9 °C
Point de rosée: DewpointC °C 4.5 °C 7.1 °C
Humidité: Humidity % 49 % 56 %
Vitesse du vent: 0 km/h 0 km/h 4.8 km/h
Rafales: 0 km/h - -
Vent:- - ESE
Pression: PressurehPa hPa 1011.4 hPa -
Précipitations: 0.0 mm    
Historical Graphs
 
 
Mesures pour : Avril 6, 2017
Heure Temperature Point de rosée Pression Vent Vitesse du vent Rafales Humidité Pluie (par heure) Conditions
TemperatureC °C DewpointC °C PressurehPa hPa Calm     Humidity % HourlyPrecipMM mm SoftwareType W/m2
00:11 11.8 °C 6.5 °C 1014.1 hPa NNE 6.4 km/h 9.3 km/h 70 % 0.0 mm open2300-1.11 W/m2
01:11 12.4 °C 6.2 °C 1014.1 hPa North 5.1 km/h 19.2 km/h 66 % 0.0 mm open2300-1.11 W/m2
02:11 12.6 °C 5.9 °C 1013.8 hPa NNE 4.2 km/h 6.4 km/h 64 % 0.0 mm open2300-1.11 W/m2
03:11 12.7 °C 5.6 °C 1013.4 hPa Calm   5.6 km/h 62 % 0.0 mm open2300-1.11 W/m2
04:11 12.8 °C 5.2 °C 1013.1 hPa North 6.9 km/h 12.7 km/h 60 % 0.0 mm open2300-1.11 W/m2
05:11 12.3 °C 5.0 °C 1012.8 hPa Calm   4.2 km/h 61 % 0.0 mm open2300-1.11 W/m2
06:11 12.3 °C 4.8 °C 1012.4 hPa NW 14.5 km/h 14.5 km/h 60 % 0.0 mm open2300-1.11 W/m2
07:11 12.3 °C 4.5 °C 1011.7 hPa North 17.9 km/h 20.3 km/h 59 % 0.0 mm open2300-1.11 W/m2
08:11 12.4 °C 4.6 °C 1011.7 hPa North 9.8 km/h 15 km/h 59 % 0.0 mm open2300-1.11 W/m2
09:11 13.2 °C 5.3 °C 1011.4 hPa NNW 5.6 km/h 15 km/h 59 % 0.0 mm open2300-1.11 W/m2
10:11 14.3 °C 5.9 °C 1011.4 hPa WNW 8 km/h 8 km/h 57 % 0.0 mm open2300-1.11 W/m2
11:11 16.4 °C 7.3 °C 1011.4 hPa ENE 2.3 km/h 3.4 km/h 55 % 0.0 mm open2300-1.11 W/m2
12:11 19.2 °C 9.4 °C 1012.1 hPa Calm   4.7 km/h 53 % 0.0 mm open2300-1.11 W/m2
13:11 19.6 °C 8.6 °C 1012.4 hPa Calm   11.6 km/h 49 % 0.0 mm open2300-1.11 W/m2
14:11 20.0 °C 9.6 °C 1012.1 hPa SE 11.6 km/h 11.6 km/h 51 % 0.0 mm open2300-1.11 W/m2
15:11 20.1 °C 10.7 °C 1012.1 hPa SSW 8 km/h 14 km/h 55 % 0.0 mm open2300-1.11 W/m2
16:11 19.5 °C 10.2 °C 1012.1 hPa South 3.4 km/h 5.6 km/h 55 % 0.0 mm open2300-1.11 W/m2
17:11 19.4 °C 10.4 °C 1012.1 hPa ESE 2.9 km/h 2.9 km/h 56 % 0.0 mm open2300-1.11 W/m2
18:11 18.6 °C 9.9 °C 1012.1 hPa SE 1.8 km/h 2.3 km/h 57 % 0.0 mm open2300-1.11 W/m2
19:11 18.0 °C 9.0 °C 1012.8 hPa Calm   4.2 km/h 56 % 0.0 mm open2300-1.11 W/m2
20:11 16.9 °C 8.8 °C 1013.1 hPa Calm     59 % 0.0 mm open2300-1.11 W/m2
21:11 15.5 °C 8.5 °C 1013.4 hPa Calm     63 % 0.0 mm open2300-1.11 W/m2
22:11 15.1 °C 7.9 °C 1014.1 hPa ESE 8 km/h 8 km/h 62 % 0.0 mm open2300-1.11 W/m2
23:11 14.7 °C 7.5 °C 1014.4 hPa ENE 3.4 km/h 3.4 km/h 62 % 0.0 mm open2300-1.11 W/m2
Observations météo à CASSIS
WU-History script by Weather Underground - 1 mb